Time;durP1;ratioP1;P1;durP2;ratioP2;P2;SDS_P1;SDS_P2;PMS_P1;PMS_P2;Temp;Humidity;BMP_temperature;BMP_pressure;BME280_temperature;BME280_humidity;BME280_pressure;Samples;Min_cycle;Max_cycle;Signal;HPM_P1;HPM_P2
2023/12/10 00:00:09;;;;;;;11.30;5.50;;;;;;;;;;6214194;23;20180;-92
2023/12/10 00:02:37;;;;;;;18.67;4.57;;;;;;;;;;6214695;23;20172;-91
2023/12/10 00:05:07;;;;;;;24.87;6.90;;;;;;;;;;6214096;23;20205;-91
2023/12/10 00:07:35;;;;;;;16.73;5.17;;;;;;;;;;6213622;23;20174;-91
2023/12/10 00:10:04;;;;;;;13.53;4.70;;;;;;;;;;6214202;23;20177;-92
2023/12/10 00:12:33;;;;;;;13.30;3.90;;;;;;;;;;6213799;23;20188;-91
2023/12/10 00:15:03;;;;;;;15.50;3.83;;;;;;;;;;6213873;23;20171;-92
2023/12/10 00:17:32;;;;;;;11.10;4.97;;;;;;;;;;6214010;23;20173;-92
2023/12/10 00:20:00;;;;;;;14.27;4.37;;;;;;;;;;6213997;23;20211;-92
2023/12/10 00:22:29;;;;;;;17.50;5.73;;;;;;;;;;6215216;23;20192;-92
2023/12/10 00:24:58;;;;;;;13.13;4.70;;;;;;;;;;6213991;23;20184;-92
2023/12/10 00:27:27;;;;;;;9.37;3.63;;;;;;;;;;6213985;23;20291;-91
2023/12/10 00:29:55;;;;;;;20.37;5.77;;;;;;;;;;6213931;23;20243;-91
2023/12/10 00:32:25;;;;;;;14.53;7.17;;;;;;;;;;6214011;23;20196;-92
2023/12/10 00:34:54;;;;;;;12.87;4.17;;;;;;;;;;6213999;23;20177;-91
2023/12/10 00:37:23;;;;;;;11.10;3.87;;;;;;;;;;6213261;23;20281;-92
2023/12/10 00:39:51;;;;;;;12.07;3.30;;;;;;;;;;6214431;23;20240;-92
2023/12/10 00:42:20;;;;;;;13.50;4.80;;;;;;;;;;6214316;23;20175;-92
2023/12/10 00:44:49;;;;;;;24.17;6.57;;;;;;;;;;6213931;23;20184;-92
2023/12/10 00:47:17;;;;;;;19.37;4.47;;;;;;;;;;6215627;23;20173;-91
2023/12/10 00:49:48;;;;;;;10.90;6.53;;;;;;;;;;6215522;23;20199;-92
2023/12/10 00:52:16;;;;;;;16.37;4.73;;;;;;;;;;6216130;23;20204;-92
2023/12/10 00:54:45;;;;;;;20.40;6.10;;;;;;;;;;6216018;23;20172;-92
2023/12/10 00:57:13;;;;;;;17.53;6.07;;;;;;;;;;6215093;23;20180;-91
2023/12/10 00:59:42;;;;;;;12.17;5.10;;;;;;;;;;6216608;23;20272;-91
2023/12/10 01:02:11;;;;;;;18.20;6.27;;;;;;;;;;6216225;23;20209;-91
2023/12/10 01:04:39;;;;;;;16.93;6.67;;;;;;;;;;6215099;23;20183;-91
2023/12/10 01:07:11;;;;;;;24.57;9.33;;;;;;;;;;6214903;23;20193;-92
2023/12/10 01:09:40;;;;;;;23.77;5.37;;;;;;;;;;6215846;23;20184;-92
2023/12/10 01:12:09;;;;;;;14.70;4.70;;;;;;;;;;6215994;23;20281;-91
2023/12/10 01:14:37;;;;;;;14.97;4.40;;;;;;;;;;6216015;23;20178;-91
2023/12/10 01:17:08;;;;;;;10.50;3.87;;;;;;;;;;6215467;23;20189;-93
2023/12/10 01:19:37;;;;;;;17.80;6.77;;;;;;;;;;6216003;23;20172;-91
2023/12/10 01:22:06;;;;;;;16.40;5.37;;;;;;;;;;6215393;23;20180;-91
2023/12/10 01:24:36;;;;;;;13.07;5.20;;;;;;;;;;6215639;23;20177;-91
2023/12/10 01:27:04;;;;;;;12.23;5.17;;;;;;;;;;6214988;23;20177;-92
2023/12/10 01:29:34;;;;;;;16.20;3.87;;;;;;;;;;6215979;23;20175;-91
2023/12/10 01:32:03;;;;;;;15.77;4.97;;;;;;;;;;6215248;23;20195;-91
2023/12/10 01:34:31;;;;;;;16.57;5.87;;;;;;;;;;6214930;23;20266;-91
2023/12/10 01:37:00;;;;;;;16.17;4.73;;;;;;;;;;6214479;23;20181;-91
2023/12/10 01:39:30;;;;;;;13.83;5.07;;;;;;;;;;6215836;23;20173;-92
2023/12/10 01:42:00;;;;;;;5.17;2.30;;;;;;;;;;6216241;23;20173;-92
2023/12/10 01:44:30;;;;;;;19.97;6.07;;;;;;;;;;6214982;23;20260;-91
2023/12/10 01:46:59;;;;;;;8.97;3.57;;;;;;;;;;6215344;23;20180;-91
2023/12/10 01:49:28;;;;;;;16.17;6.90;;;;;;;;;;6215302;23;20182;-92
2023/12/10 01:51:57;;;;;;;15.63;5.30;;;;;;;;;;6214764;23;20218;-91
2023/12/10 01:54:26;;;;;;;25.60;9.30;;;;;;;;;;6215085;23;20177;-90
2023/12/10 01:56:56;;;;;;;13.93;4.30;;;;;;;;;;6214272;23;20199;-92
2023/12/10 01:59:36;;;;;;;25.87;8.00;;;;;;;;;;6214862;23;20225;-91
2023/12/10 02:02:06;;;;;;;9.67;5.13;;;;;;;;;;6215470;23;20169;-91
2023/12/10 02:04:35;;;;;;;14.63;5.20;;;;;;;;;;6215343;23;20195;-91
2023/12/10 02:07:03;;;;;;;16.67;5.57;;;;;;;;;;6214272;23;20178;-91
2023/12/10 02:09:32;;;;;;;21.07;5.40;;;;;;;;;;6215798;23;20187;-92
2023/12/10 02:12:01;;;;;;;17.00;11.60;;;;;;;;;;6215062;23;20179;-90
2023/12/10 02:14:29;;;;;;;21.20;5.73;;;;;;;;;;6214646;23;20198;-89
2023/12/10 02:16:59;;;;;;;27.47;9.37;;;;;;;;;;6214155;23;20184;-89
2023/12/10 02:19:28;;;;;;;27.13;7.07;;;;;;;;;;6214474;23;20172;-88
2023/12/10 02:21:58;;;;;;;29.77;9.03;;;;;;;;;;6214989;23;20175;-88
2023/12/10 02:24:27;;;;;;;14.63;6.40;;;;;;;;;;6214509;23;20198;-88
2023/12/10 02:26:57;;;;;;;18.83;5.57;;;;;;;;;;6213388;23;20215;-88
2023/12/10 02:29:26;;;;;;;27.23;6.40;;;;;;;;;;6214381;23;20180;-88
2023/12/10 02:31:55;;;;;;;23.70;5.00;;;;;;;;;;6214849;23;20183;-87
2023/12/10 02:34:23;;;;;;;26.63;8.37;;;;;;;;;;6214634;23;20179;-87
2023/12/10 02:36:52;;;;;;;18.37;4.60;;;;;;;;;;6213646;23;20191;-87
2023/12/10 02:39:20;;;;;;;24.97;8.03;;;;;;;;;;6214154;23;20174;-87
2023/12/10 02:41:49;;;;;;;16.30;5.10;;;;;;;;;;6214054;23;20189;-88
2023/12/10 02:44:19;;;;;;;25.10;7.10;;;;;;;;;;6214154;23;20179;-86
2023/12/10 02:46:49;;;;;;;33.47;9.77;;;;;;;;;;6213766;23;20179;-87
2023/12/10 02:49:17;;;;;;;19.87;4.70;;;;;;;;;;6213982;23;20199;-87
2023/12/10 02:51:46;;;;;;;28.03;9.00;;;;;;;;;;6214651;23;20180;-87
2023/12/10 02:54:15;;;;;;;9.87;3.67;;;;;;;;;;6213655;23;20238;-87
2023/12/10 02:56:43;;;;;;;14.57;4.07;;;;;;;;;;6213894;23;20261;-87
2023/12/10 02:59:11;;;;;;;17.17;7.33;;;;;;;;;;6214116;23;20180;-87
2023/12/10 03:01:41;;;;;;;13.77;5.10;;;;;;;;;;6214251;23;20204;-87
2023/12/10 03:04:10;;;;;;;21.37;6.37;;;;;;;;;;6214285;23;20164;-87
2023/12/10 03:06:38;;;;;;;19.17;5.90;;;;;;;;;;6213671;23;20179;-87
2023/12/10 03:09:07;;;;;;;25.03;7.50;;;;;;;;;;6213724;23;20179;-87
2023/12/10 03:11:37;;;;;;;30.17;8.43;;;;;;;;;;6214048;23;20179;-87
2023/12/10 03:14:05;;;;;;;22.67;7.37;;;;;;;;;;6213976;23;20241;-87
2023/12/10 03:16:34;;;;;;;18.00;5.40;;;;;;;;;;6213235;23;20178;-87
2023/12/10 03:19:03;;;;;;;33.47;9.37;;;;;;;;;;6213069;23;20177;-86
2023/12/10 03:21:32;;;;;;;27.57;7.00;;;;;;;;;;6214206;23;20178;-87
2023/12/10 03:24:01;;;;;;;16.87;5.33;;;;;;;;;;6213862;23;20201;-87
2023/12/10 03:26:29;;;;;;;14.60;5.17;;;;;;;;;;6213760;23;20179;-87
2023/12/10 03:28:58;;;;;;;25.47;7.03;;;;;;;;;;6213006;23;20214;-87
2023/12/10 03:31:26;;;;;;;28.43;7.03;;;;;;;;;;6214065;23;20207;-87
2023/12/10 03:33:55;;;;;;;22.23;5.93;;;;;;;;;;6213796;23;20184;-87
2023/12/10 03:36:25;;;;;;;43.23;9.10;;;;;;;;;;6213421;23;20176;-87
2023/12/10 03:38:53;;;;;;;16.60;5.83;;;;;;;;;;6213328;23;20231;-87
2023/12/10 03:41:22;;;;;;;19.40;6.10;;;;;;;;;;6213787;23;20182;-87
2023/12/10 03:43:50;;;;;;;21.47;5.90;;;;;;;;;;6213405;23;20209;-87
2023/12/10 03:46:19;;;;;;;36.50;9.77;;;;;;;;;;6212898;23;20176;-87
2023/12/10 03:48:47;;;;;;;26.53;8.97;;;;;;;;;;6213011;23;20179;-87
2023/12/10 03:51:16;;;;;;;27.93;8.40;;;;;;;;;;6213263;23;20254;-87
2023/12/10 03:53:46;;;;;;;17.30;7.37;;;;;;;;;;6213763;23;20182;-87
2023/12/10 03:56:14;;;;;;;24.87;7.40;;;;;;;;;;6212833;23;20174;-86
2023/12/10 03:58:43;;;;;;;34.57;7.03;;;;;;;;;;6212988;23;20177;-86
2023/12/10 04:01:11;;;;;;;24.73;7.13;;;;;;;;;;6213545;23;20179;-87
2023/12/10 04:03:40;;;;;;;28.30;8.50;;;;;;;;;;6213827;23;20175;-87
2023/12/10 04:06:09;;;;;;;15.00;5.03;;;;;;;;;;6213052;23;20225;-87
2023/12/10 04:08:38;;;;;;;20.73;7.13;;;;;;;;;;6212926;23;20191;-87
2023/12/10 04:11:08;;;;;;;34.07;10.83;;;;;;;;;;6213939;23;20265;-86
2023/12/10 04:13:36;;;;;;;34.00;9.80;;;;;;;;;;6213687;23;20198;-86
2023/12/10 04:16:05;;;;;;;23.77;7.57;;;;;;;;;;6213018;23;20177;-86
2023/12/10 04:18:34;;;;;;;21.43;6.80;;;;;;;;;;6212909;23;20206;-87
2023/12/10 04:21:02;;;;;;;17.33;6.90;;;;;;;;;;6214957;23;20210;-87
2023/12/10 04:23:31;;;;;;;23.47;7.03;;;;;;;;;;6216115;23;20194;-87
2023/12/10 04:25:59;;;;;;;16.30;5.17;;;;;;;;;;6215279;23;20201;-87
2023/12/10 04:28:30;;;;;;;29.70;7.27;;;;;;;;;;6214868;23;20206;-87
2023/12/10 04:30:58;;;;;;;24.40;7.43;;;;;;;;;;6215775;23;20176;-88
2023/12/10 04:33:27;;;;;;;17.30;6.47;;;;;;;;;;6215984;23;20190;-88
2023/12/10 04:35:55;;;;;;;26.43;8.23;;;;;;;;;;6215385;23;20259;-89
2023/12/10 04:38:24;;;;;;;20.13;6.30;;;;;;;;;;6215152;23;20176;-88
2023/12/10 04:40:52;;;;;;;38.33;11.57;;;;;;;;;;6216297;23;20183;-89
2023/12/10 04:43:21;;;;;;;27.07;8.87;;;;;;;;;;6215551;23;20270;-90
2023/12/10 04:45:51;;;;;;;26.77;9.37;;;;;;;;;;6215183;23;20179;-89
2023/12/10 04:48:19;;;;;;;25.50;6.53;;;;;;;;;;6215332;23;20179;-90
2023/12/10 04:50:48;;;;;;;26.77;6.67;;;;;;;;;;6215842;23;20171;-88
2023/12/10 04:53:17;;;;;;;25.40;6.53;;;;;;;;;;6215849;23;20175;-90
2023/12/10 04:55:45;;;;;;;35.40;11.47;;;;;;;;;;6215636;23;20171;-90
2023/12/10 04:58:14;;;;;;;25.73;7.73;;;;;;;;;;6215386;23;20218;-91
2023/12/10 05:00:43;;;;;;;20.77;7.90;;;;;;;;;;6216301;23;20177;-90
2023/12/10 05:03:13;;;;;;;23.83;6.27;;;;;;;;;;6216092;23;20176;-91
2023/12/10 05:05:41;;;;;;;22.63;7.43;;;;;;;;;;6215918;23;20242;-90
2023/12/10 05:08:10;;;;;;;29.93;8.97;;;;;;;;;;6214800;23;20255;-90
2023/12/10 05:10:38;;;;;;;33.60;12.03;;;;;;;;;;6216073;23;20208;-91
2023/12/10 05:13:07;;;;;;;30.73;11.10;;;;;;;;;;6215623;23;20172;-90
2023/12/10 05:15:35;;;;;;;15.03;5.00;;;;;;;;;;6215248;23;20227;-90
2023/12/10 05:18:04;;;;;;;27.97;7.40;;;;;;;;;;6215069;23;20183;-90
2023/12/10 05:20:34;;;;;;;19.67;5.33;;;;;;;;;;6216041;23;20179;-91
2023/12/10 05:23:02;;;;;;;32.20;11.30;;;;;;;;;;6215835;23;20291;-89
2023/12/10 05:25:30;;;;;;;30.53;10.03;;;;;;;;;;6215420;23;20171;-90
2023/12/10 05:27:59;;;;;;;30.83;10.57;;;;;;;;;;6214709;23;20219;-90
2023/12/10 05:30:28;;;;;;;32.50;6.87;;;;;;;;;;6215907;23;20188;-90
2023/12/10 05:32:58;;;;;;;30.43;10.57;;;;;;;;;;6215204;23;20178;-90
2023/12/10 05:35:27;;;;;;;24.37;5.90;;;;;;;;;;6215418;23;20203;-91
2023/12/10 05:37:57;;;;;;;22.47;8.90;;;;;;;;;;6214825;23;20234;-90
2023/12/10 05:40:25;;;;;;;24.43;7.30;;;;;;;;;;6215698;23;20236;-91
2023/12/10 05:42:54;;;;;;;29.30;9.27;;;;;;;;;;6215240;23;20174;-90
2023/12/10 05:45:23;;;;;;;17.63;5.20;;;;;;;;;;6214763;23;20171;-91
2023/12/10 05:47:51;;;;;;;28.27;7.30;;;;;;;;;;6214407;23;20256;-90
2023/12/10 05:50:21;;;;;;;41.50;14.20;;;;;;;;;;6215203;23;20289;-91
2023/12/10 05:52:49;;;;;;;37.80;11.13;;;;;;;;;;6215459;23;20181;-90
2023/12/10 05:55:19;;;;;;;26.77;8.60;;;;;;;;;;6214866;23;20194;-90
2023/12/10 05:57:48;;;;;;;19.27;6.90;;;;;;;;;;6214302;23;20173;-90
2023/12/10 06:00:17;;;;;;;38.43;10.40;;;;;;;;;;6214982;23;20173;-91
2023/12/10 06:02:46;;;;;;;18.87;8.63;;;;;;;;;;6215770;23;20208;-91
2023/12/10 06:05:14;;;;;;;16.80;6.03;;;;;;;;;;6215464;23;20172;-91
2023/12/10 06:07:43;;;;;;;22.33;7.73;;;;;;;;;;6214116;23;20178;-91
2023/12/10 06:10:12;;;;;;;35.87;11.83;;;;;;;;;;6215172;23;20181;-91
2023/12/10 06:12:42;;;;;;;30.13;10.07;;;;;;;;;;6215088;23;20210;-91
2023/12/10 06:15:11;;;;;;;25.00;7.40;;;;;;;;;;6215218;23;20193;-90
2023/12/10 06:17:40;;;;;;;21.10;8.23;;;;;;;;;;6214555;23;20256;-91
2023/12/10 06:20:09;;;;;;;25.63;5.83;;;;;;;;;;6215599;23;20230;-91
2023/12/10 06:22:38;;;;;;;32.47;10.93;;;;;;;;;;6215458;23;20391;-91
2023/12/10 06:25:06;;;;;;;27.90;10.93;;;;;;;;;;6214691;23;20179;-90
2023/12/10 06:27:35;;;;;;;28.83;12.53;;;;;;;;;;6214259;23;20307;-91
2023/12/10 06:30:06;;;;;;;23.10;8.03;;;;;;;;;;6214987;23;20169;-91
2023/12/10 06:32:34;;;;;;;13.27;5.60;;;;;;;;;;6214941;23;20177;-92
2023/12/10 06:35:03;;;;;;;18.53;5.17;;;;;;;;;;6215134;23;20200;-91
2023/12/10 06:37:32;;;;;;;21.10;7.77;;;;;;;;;;6213902;23;20188;-91
2023/12/10 06:40:00;;;;;;;39.67;11.00;;;;;;;;;;6214502;23;20176;-91
2023/12/10 06:42:29;;;;;;;30.43;9.17;;;;;;;;;;6214625;23;20203;-91
2023/12/10 06:44:58;;;;;;;24.90;7.33;;;;;;;;;;6214471;23;20176;-90
2023/12/10 06:47:28;;;;;;;18.47;6.67;;;;;;;;;;6213089;23;20173;-91
2023/12/10 06:49:57;;;;;;;14.37;4.67;;;;;;;;;;6214420;23;20207;-91
2023/12/10 06:52:26;;;;;;;23.83;8.13;;;;;;;;;;6214970;23;20191;-91
2023/12/10 06:54:54;;;;;;;23.37;6.87;;;;;;;;;;6214262;23;20192;-91
2023/12/10 06:57:27;;;;;;;33.40;9.63;;;;;;;;;;6214324;23;20182;-90
2023/12/10 06:59:56;;;;;;;14.53;6.07;;;;;;;;;;6213776;23;20184;-91
2023/12/10 07:02:24;;;;;;;13.20;7.73;;;;;;;;;;6214899;23;20190;-91
2023/12/10 07:04:56;;;;;;;14.90;5.00;;;;;;;;;;6214884;23;20173;-92
2023/12/10 07:07:25;;;;;;;26.97;6.93;;;;;;;;;;6214359;23;20182;-91
2023/12/10 07:09:56;;;;;;;27.33;12.27;;;;;;;;;;6214266;23;20172;-91
2023/12/10 07:12:24;;;;;;;23.40;7.77;;;;;;;;;;6214945;23;20172;-91
2023/12/10 07:14:53;;;;;;;16.33;5.40;;;;;;;;;;6214814;23;20267;-91
2023/12/10 07:17:22;;;;;;;19.50;5.60;;;;;;;;;;6213684;23;20181;-91
2023/12/10 07:19:50;;;;;;;19.90;6.23;;;;;;;;;;6214416;23;20181;-91
2023/12/10 07:22:21;;;;;;;28.17;7.47;;;;;;;;;;6214771;23;20179;-91
2023/12/10 07:24:49;;;;;;;24.27;8.30;;;;;;;;;;6214432;23;20171;-91
2023/12/10 07:27:18;;;;;;;18.73;5.17;;;;;;;;;;6213024;23;20211;-91
2023/12/10 07:29:47;;;;;;;25.43;6.83;;;;;;;;;;6214363;23;20181;-91
2023/12/10 07:32:16;;;;;;;13.77;4.70;;;;;;;;;;6214141;23;20265;-91
2023/12/10 07:34:45;;;;;;;27.67;8.27;;;;;;;;;;6213672;23;20224;-92
2023/12/10 07:37:13;;;;;;;29.53;8.53;;;;;;;;;;6214035;23;20182;-91
2023/12/10 07:39:43;;;;;;;17.57;5.10;;;;;;;;;;6213570;23;20226;-91
2023/12/10 07:42:12;;;;;;;31.50;11.80;;;;;;;;;;6214373;23;20203;-91
2023/12/10 07:44:41;;;;;;;20.57;5.97;;;;;;;;;;6213826;23;20195;-91
2023/12/10 07:47:09;;;;;;;14.27;4.77;;;;;;;;;;6213764;23;20233;-91
2023/12/10 07:49:40;;;;;;;14.17;6.10;;;;;;;;;;6213872;23;20181;-90
2023/12/10 07:52:09;;;;;;;29.70;10.93;;;;;;;;;;6214028;23;20187;-91
2023/12/10 07:54:38;;;;;;;29.27;10.13;;;;;;;;;;6213509;23;20179;-91
2023/12/10 07:57:08;;;;;;;14.97;5.57;;;;;;;;;;6213167;23;20215;-91
2023/12/10 07:59:36;;;;;;;13.57;5.43;;;;;;;;;;6213573;23;20179;-90
2023/12/10 08:02:05;;;;;;;6.27;3.53;;;;;;;;;;6214348;23;20172;-91
2023/12/10 08:04:34;;;;;;;17.10;4.80;;;;;;;;;;6214256;23;20228;-91
2023/12/10 08:07:02;;;;;;;20.87;6.37;;;;;;;;;;6213894;23;20323;-90
2023/12/10 08:09:31;;;;;;;23.63;8.07;;;;;;;;;;6213730;23;20179;-91
2023/12/10 08:12:00;;;;;;;27.37;8.50;;;;;;;;;;6214367;23;20180;-91
2023/12/10 08:14:30;;;;;;;16.17;4.10;;;;;;;;;;6214278;23;20172;-90
2023/12/10 08:16:59;;;;;;;32.67;8.00;;;;;;;;;;6213705;23;20224;-90
2023/12/10 08:19:28;;;;;;;16.57;5.27;;;;;;;;;;6213574;23;20176;-91
2023/12/10 08:21:57;;;;;;;12.20;6.23;;;;;;;;;;6213723;23;20167;-91
2023/12/10 08:24:26;;;;;;;24.43;7.20;;;;;;;;;;6214280;23;20231;-91
2023/12/10 08:26:55;;;;;;;28.30;8.93;;;;;;;;;;6213685;23;20183;-91
2023/12/10 08:29:24;;;;;;;18.07;6.27;;;;;;;;;;6213308;23;20208;-91
2023/12/10 08:31:54;;;;;;;13.43;4.57;;;;;;;;;;6214031;23;20178;-91
2023/12/10 08:34:23;;;;;;;24.27;7.00;;;;;;;;;;6213730;23;20178;-91
2023/12/10 08:36:51;;;;;;;17.87;5.63;;;;;;;;;;6213815;23;20288;-91
2023/12/10 08:39:20;;;;;;;10.83;4.20;;;;;;;;;;6213547;23;20260;-91
2023/12/10 08:41:49;;;;;;;10.87;4.33;;;;;;;;;;6213839;23;20179;-90
2023/12/10 08:44:17;;;;;;;23.23;7.83;;;;;;;;;;6214177;23;20179;-91
2023/12/10 08:46:46;;;;;;;24.20;8.40;;;;;;;;;;6213584;23;20228;-91
2023/12/10 08:49:16;;;;;;;16.23;5.17;;;;;;;;;;6213376;23;20179;-89
2023/12/10 08:51:45;;;;;;;12.70;4.97;;;;;;;;;;6214396;23;20186;-90
2023/12/10 08:54:14;;;;;;;21.50;8.80;;;;;;;;;;6213619;23;20185;-90
2023/12/10 08:56:42;;;;;;;21.60;8.37;;;;;;;;;;6213438;23;20201;-91
2023/12/10 08:59:11;;;;;;;20.63;5.80;;;;;;;;;;6213442;23;20208;-91
2023/12/10 09:01:39;;;;;;;21.07;5.17;;;;;;;;;;6214287;23;20172;-91
2023/12/10 09:04:08;;;;;;;11.37;4.47;;;;;;;;;;6214069;23;20173;-90
2023/12/10 09:06:38;;;;;;;21.10;5.97;;;;;;;;;;6214468;23;20232;-90
2023/12/10 09:09:07;;;;;;;18.77;4.67;;;;;;;;;;6215594;23;20183;-92
2023/12/10 09:11:35;;;;;;;12.67;4.87;;;;;;;;;;6216053;23;20176;-90
2023/12/10 09:14:07;;;;;;;13.03;5.03;;;;;;;;;;6216151;23;20180;-91
2023/12/10 09:16:36;;;;;;;19.23;6.30;;;;;;;;;;6215912;23;20251;-90
2023/12/10 09:19:04;;;;;;;18.43;5.27;;;;;;;;;;6214733;23;20223;-90
2023/12/10 09:21:33;;;;;;;21.73;8.30;;;;;;;;;;6216008;23;20249;-90
2023/12/10 09:24:03;;;;;;;20.60;7.63;;;;;;;;;;6216258;23;20287;-91
2023/12/10 09:26:31;;;;;;;21.03;7.27;;;;;;;;;;6216216;23;20174;-90
2023/12/10 09:29:00;;;;;;;19.80;8.60;;;;;;;;;;6215027;23;20209;-91
2023/12/10 09:31:28;;;;;;;23.87;7.70;;;;;;;;;;6215249;23;20173;-91
2023/12/10 09:33:57;;;;;;;8.20;4.27;;;;;;;;;;6215539;23;20177;-91
2023/12/10 09:36:26;;;;;;;14.27;5.57;;;;;;;;;;6214761;23;20197;-90
2023/12/10 09:38:54;;;;;;;17.13;5.00;;;;;;;;;;6215187;23;20178;-91
2023/12/10 09:41:24;;;;;;;20.63;7.67;;;;;;;;;;6216001;23;20167;-90
2023/12/10 09:43:53;;;;;;;8.90;3.37;;;;;;;;;;6215524;23;20206;-90
2023/12/10 09:46:22;;;;;;;20.63;4.63;;;;;;;;;;6215074;23;20172;-89
2023/12/10 09:48:51;;;;;;;18.83;5.50;;;;;;;;;;6214649;23;20181;-89
2023/12/10 09:51:19;;;;;;;18.70;6.70;;;;;;;;;;6214878;23;20178;-90
2023/12/10 09:53:49;;;;;;;7.10;3.30;;;;;;;;;;6214764;23;20172;-90
2023/12/10 09:56:17;;;;;;;20.03;7.20;;;;;;;;;;6215235;23;20197;-91
2023/12/10 09:58:47;;;;;;;18.83;6.47;;;;;;;;;;6213760;23;20199;-91
2023/12/10 10:01:16;;;;;;;19.77;5.37;;;;;;;;;;6215264;23;20201;-91
2023/12/10 10:03:45;;;;;;;28.97;10.47;;;;;;;;;;6214870;23;20256;-90
2023/12/10 10:06:13;;;;;;;16.83;4.93;;;;;;;;;;6214994;23;20203;-90
2023/12/10 10:08:42;;;;;;;17.27;5.33;;;;;;;;;;6214389;23;20207;-91
2023/12/10 10:11:11;;;;;;;17.93;5.53;;;;;;;;;;6215406;23;20173;-91
2023/12/10 10:13:39;;;;;;;11.23;3.17;;;;;;;;;;6215503;23;20182;-90
2023/12/10 10:16:12;;;;;;;11.33;4.03;;;;;;;;;;6214817;23;20223;-90
2023/12/10 10:18:41;;;;;;;14.97;6.00;;;;;;;;;;6213578;23;20172;-91
2023/12/10 10:21:10;;;;;;;28.63;7.43;;;;;;;;;;6215589;23;20215;-91
2023/12/10 10:23:39;;;;;;;20.37;7.93;;;;;;;;;;6215254;23;20200;-90
2023/12/10 10:26:07;;;;;;;12.10;3.23;;;;;;;;;;6215359;23;20185;-90
2023/12/10 10:28:36;;;;;;;19.80;4.40;;;;;;;;;;6213905;23;20231;-90
2023/12/10 10:31:05;;;;;;;16.97;4.70;;;;;;;;;;6215514;23;20179;-91
2023/12/10 10:33:35;;;;;;;20.10;6.17;;;;;;;;;;6214705;23;20173;-91
2023/12/10 10:36:05;;;;;;;24.83;8.00;;;;;;;;;;6215026;23;20185;-90
2023/12/10 10:38:34;;;;;;;20.40;5.53;;;;;;;;;;6214090;23;20193;-90
2023/12/10 10:41:15;;;;;;;12.93;3.57;;;;;;;;;;6213559;23;20177;-88
2023/12/10 10:43:44;;;;;;;11.33;2.80;;;;;;;;;;6215328;23;20176;-89
2023/12/10 10:46:13;;;;;;;16.73;5.07;;;;;;;;;;6215941;23;20179;-90
2023/12/10 10:48:43;;;;;;;15.23;4.57;;;;;;;;;;6215092;23;20172;-92
2023/12/10 10:51:15;;;;;;;21.87;7.07;;;;;;;;;;6214877;23;20199;-90
2023/12/10 10:53:45;;;;;;;5.47;2.07;;;;;;;;;;6212928;23;20181;-91
2023/12/10 10:56:15;;;;;;;17.43;5.63;;;;;;;;;;6214399;23;20228;-91
2023/12/10 10:58:44;;;;;;;7.73;2.27;;;;;;;;;;6213517;23;20189;-91
2023/12/10 11:01:27;;;;;;;19.40;7.47;;;;;;;;;;6214151;23;20250;-91
2023/12/10 11:03:57;;;;;;;26.07;6.33;;;;;;;;;;6214282;23;20407;-91
2023/12/10 11:06:26;;;;;;;12.67;4.13;;;;;;;;;;6214205;23;20279;-91
2023/12/10 11:08:59;;;;;;;19.27;6.13;;;;;;;;;;6213638;23;20167;-90
2023/12/10 11:11:30;;;;;;;21.63;4.87;;;;;;;;;;6214327;23;20222;-91
2023/12/10 11:13:59;;;;;;;12.67;3.83;;;;;;;;;;6213154;23;20173;-91
2023/12/10 11:16:26;;;;;;;12.83;2.43;;;;;;;;;;6214223;23;20171;-91
2023/12/10 11:18:55;;;;;;;10.30;4.63;;;;;;;;;;6213767;23;20201;-91
2023/12/10 11:21:26;;;;;;;12.30;3.00;;;;;;;;;;6214128;23;20173;-91
2023/12/10 11:23:54;;;;;;;8.77;2.90;;;;;;;;;;6214930;23;20207;-91
2023/12/10 11:26:23;;;;;;;15.30;5.87;;;;;;;;;;6214505;23;20210;-91
2023/12/10 11:28:52;;;;;;;9.33;2.43;;;;;;;;;;6213823;23;20200;-91
2023/12/10 11:31:21;;;;;;;21.80;3.40;;;;;;;;;;6213672;23;20195;-91
2023/12/10 11:33:50;;;;;;;14.13;4.83;;;;;;;;;;6214650;23;20191;-92
2023/12/10 11:36:19;;;;;;;10.17;2.50;;;;;;;;;;6214515;23;20170;-92
2023/12/10 11:39:12;;;;;;;14.80;4.13;;;;;;;;;;6213383;23;20192;-91
2023/12/10 11:41:42;;;;;;;9.93;3.43;;;;;;;;;;6214214;23;20177;-91
2023/12/10 11:44:26;;;;;;;4.73;2.50;;;;;;;;;;6214315;23;20181;-92
2023/12/10 11:46:57;;;;;;;19.90;4.63;;;;;;;;;;6214073;23;20173;-91
2023/12/10 11:49:26;;;;;;;14.93;3.23;;;;;;;;;;6213259;23;20170;-91
2023/12/10 11:51:55;;;;;;;15.03;3.73;;;;;;;;;;6214201;23;20184;-91
2023/12/10 11:54:25;;;;;;;17.70;5.67;;;;;;;;;;6214290;23;20181;-92
2023/12/10 11:56:54;;;;;;;11.40;3.17;;;;;;;;;;6213809;23;20174;-91
2023/12/10 11:59:22;;;;;;;12.67;4.30;;;;;;;;;;6213630;23;20439;-90
2023/12/10 12:01:51;;;;;;;9.13;3.50;;;;;;;;;;6214658;23;20225;-91
2023/12/10 12:04:20;;;;;;;15.63;5.97;;;;;;;;;;6214496;23;20256;-91
2023/12/10 12:06:48;;;;;;;10.20;2.60;;;;;;;;;;6213902;23;20186;-92
2023/12/10 12:09:20;;;;;;;8.87;2.87;;;;;;;;;;6213220;23;20201;-91
2023/12/10 12:11:51;;;;;;;5.33;1.90;;;;;;;;;;6214035;23;20219;-91
2023/12/10 12:14:20;;;;;;;12.97;3.27;;;;;;;;;;6214455;23;20188;-91
2023/12/10 12:16:49;;;;;;;10.57;2.93;;;;;;;;;;6214423;23;20177;-91
2023/12/10 12:19:27;;;;;;;9.03;2.77;;;;;;;;;;6213033;23;20192;-91
2023/12/10 12:21:57;;;;;;;5.90;2.57;;;;;;;;;;6214599;23;20197;-91
2023/12/10 12:24:26;;;;;;;6.97;2.97;;;;;;;;;;6214054;23;20219;-91
2023/12/10 12:26:57;;;;;;;6.50;2.20;;;;;;;;;;6213865;23;20173;-92
2023/12/10 12:29:26;;;;;;;10.97;3.03;;;;;;;;;;6213515;23;20289;-90
2023/12/10 12:31:55;;;;;;;6.40;2.17;;;;;;;;;;6214658;23;20204;-92
2023/12/10 12:34:43;;;;;;;7.27;2.83;;;;;;;;;;6213887;23;20185;-91
2023/12/10 12:37:12;;;;;;;5.67;2.20;;;;;;;;;;6213384;23;20184;-91
2023/12/10 12:39:41;;;;;;;10.17;2.63;;;;;;;;;;6213506;23;20260;-91
2023/12/10 12:42:11;;;;;;;9.63;2.93;;;;;;;;;;6215147;23;20176;-91
2023/12/10 12:44:40;;;;;;;7.47;2.13;;;;;;;;;;6215366;23;20179;-91
2023/12/10 12:47:09;;;;;;;9.93;3.53;;;;;;;;;;6215692;23;20171;-92
2023/12/10 12:49:38;;;;;;;10.67;3.10;;;;;;;;;;6214483;23;20166;-91
2023/12/10 12:52:08;;;;;;;5.17;2.20;;;;;;;;;;6215479;23;20221;-92
2023/12/10 12:54:36;;;;;;;11.50;2.83;;;;;;;;;;6216125;23;20170;-92
2023/12/10 12:57:05;;;;;;;3.53;2.50;;;;;;;;;;6215887;23;20208;-91
2023/12/10 12:59:35;;;;;;;2.90;2.00;;;;;;;;;;6215233;23;20190;-91
2023/12/10 13:02:03;;;;;;;7.70;2.37;;;;;;;;;;6215674;23;20174;-92
2023/12/10 13:04:32;;;;;;;2.83;1.33;;;;;;;;;;6215481;23;20170;-91
2023/12/10 13:07:01;;;;;;;7.43;2.87;;;;;;;;;;6215568;23;20253;-90
2023/12/10 13:09:30;;;;;;;10.07;3.87;;;;;;;;;;6215350;23;20204;-90
2023/12/10 13:11:58;;;;;;;7.73;2.33;;;;;;;;;;6215749;23;20182;-91
2023/12/10 13:14:27;;;;;;;12.10;3.10;;;;;;;;;;6215351;23;20177;-90
2023/12/10 13:16:57;;;;;;;16.37;4.00;;;;;;;;;;6214968;23;20230;-91
2023/12/10 13:19:26;;;;;;;17.80;4.30;;;;;;;;;;6214329;23;20195;-91
2023/12/10 13:21:55;;;;;;;11.43;2.17;;;;;;;;;;6215708;23;20178;-91
2023/12/10 13:24:23;;;;;;;13.87;2.13;;;;;;;;;;6215435;23;20237;-90
2023/12/10 13:26:52;;;;;;;7.67;1.97;;;;;;;;;;6215365;23;20217;-91
2023/12/10 13:29:21;;;;;;;11.47;3.90;;;;;;;;;;6214292;23;20206;-91
2023/12/10 13:31:49;;;;;;;5.00;2.13;;;;;;;;;;6215766;23;20176;-92
2023/12/10 13:34:19;;;;;;;8.60;1.60;;;;;;;;;;6215514;23;20363;-92
2023/12/10 13:36:48;;;;;;;3.37;2.80;;;;;;;;;;6215826;23;20216;-93
2023/12/10 13:39:17;;;;;;;5.33;1.97;;;;;;;;;;6214741;23;20201;-91
2023/12/10 13:41:46;;;;;;;7.77;1.93;;;;;;;;;;6215778;23;20201;-91
2023/12/10 13:44:15;;;;;;;10.27;3.23;;;;;;;;;;6215131;23;20256;-91
2023/12/10 13:46:44;;;;;;;7.53;2.83;;;;;;;;;;6215339;23;20177;-91
2023/12/10 13:49:12;;;;;;;9.60;2.40;;;;;;;;;;6214427;23;20217;-92
2023/12/10 13:51:42;;;;;;;3.67;3.17;;;;;;;;;;6214648;23;20171;-91
2023/12/10 13:54:11;;;;;;;6.90;3.53;;;;;;;;;;6214384;23;20253;-91
2023/12/10 13:56:39;;;;;;;13.17;3.23;;;;;;;;;;6215087;23;20186;-91
2023/12/10 13:59:08;;;;;;;8.33;2.57;;;;;;;;;;6214926;23;20186;-92
2023/12/10 14:01:37;;;;;;;11.80;3.17;;;;;;;;;;6214854;23;20189;-91
2023/12/10 14:04:06;;;;;;;15.93;4.13;;;;;;;;;;6215495;23;20258;-91
2023/12/10 14:06:34;;;;;;;16.73;3.53;;;;;;;;;;6215069;23;20178;-92
2023/12/10 14:09:06;;;;;;;8.97;4.03;;;;;;;;;;6214545;23;20208;-91
2023/12/10 14:11:35;;;;;;;22.93;2.90;;;;;;;;;;6214962;23;20193;-91
2023/12/10 14:14:11;;;;;;;25.60;7.67;;;;;;;;;;6215140;23;20166;-91
2023/12/10 14:16:45;;;;;;;21.07;5.57;;;;;;;;;;6214972;23;20252;-91
2023/12/10 14:19:13;;;;;;;28.90;6.17;;;;;;;;;;6214465;23;20185;-91
2023/12/10 14:21:42;;;;;;;32.63;9.50;;;;;;;;;;6215143;23;20173;-92
2023/12/10 14:24:12;;;;;;;30.47;8.07;;;;;;;;;;6215470;23;20224;-91
2023/12/10 14:26:41;;;;;;;32.20;9.53;;;;;;;;;;6215108;23;20184;-92
2023/12/10 14:29:10;;;;;;;28.00;5.97;;;;;;;;;;6214025;23;20209;-91
2023/12/10 14:31:38;;;;;;;20.87;7.20;;;;;;;;;;6214908;23;20192;-92
2023/12/10 14:34:07;;;;;;;27.67;6.30;;;;;;;;;;6215227;23;20181;-91
2023/12/10 14:36:35;;;;;;;28.83;6.67;;;;;;;;;;6215002;23;20182;-91
2023/12/10 14:39:07;;;;;;;18.17;3.23;;;;;;;;;;6214227;23;20193;-90
2023/12/10 14:41:37;;;;;;;22.07;5.70;;;;;;;;;;6214122;23;20204;-91